x

Buoy E01 - Central Maine Shelf (44032) Wave Buoy

10:04 - Tue 28th Jun 2016 All times are EDT. -4 hours from GMT.

  • Sig Wave height 2.6ft
  • Peak Period 4s
  • Wind
    9mph, 11mph gusts
  • Sea Temp 59°f
  • Luft Temp 62°f
  • Sea Pressure 1012.8mb
  • Buoy E01 - Central Maine Shelf
  • Buoy E01 - Central Maine Shelf

More Historic Weather Station data

Upgrade to MSW Pro to gain access to the past 30 days of data for over 8000 Wavebouys and Weather Stations around the globe.

Join Pro

Comparision Forecast

View Surf forecast
   
Di 06/28 10:04 2.5ft 4s 9 11 mph 1012.8mb 59f 62f
9:04 3ft 8s 11 13 mph 1012.9mb 59f 62f
8:04 3ft 5s 11 13 mph 1012.9mb 59f 62f
7:04 2.5ft 5s 11 13 mph 1012.7mb 59f 62f
6:04 3ft 5s 11 13 mph 1012.5mb 59f 63f
5:04 3.5ft 8s 11 13 mph 1012.8mb 59f 62f
4:04 3.5ft 8s 11 13 mph 1013mb 59f 62f
3:04 3.5ft 5s 11
mph
1013.6mb 59f 62f
2:04 3.5ft 5s 13 16 mph 1013.8mb 59f 61f
1:04 3ft 5s 11 13 mph 1014.5mb 59f 61f
12:04 3.5ft 5s 11
mph
1015.1mb 59f 61f
11:04 3.5ft 5s 13
mph
1014.9mb 59f 62f
10:04 4ft 5s 16
mph
1014.9mb 59f 62f
9:04 4.5ft 5s 16 18 mph 1014.7mb 58f 62f
8:04 4.5ft 5s 18 22 mph 1014.2mb 58f 62f
7:04 4ft 5s 20 29 mph 1013.9mb 58f 62f
6:04 4ft 5s 13 16 mph 1013.9mb 58f 61f
5:04 5ft 5s 16 18 mph 1013.9mb 58f 62f
4:04 5.5ft 6s 18 20 mph 1013.3mb 58f 62f
3:04 6ft 6s 20 22 mph 1013.3mb 58f 63f
2:04 6ft 6s 20 27 mph 1013.5mb 58f 63f
1:04 6ft 6s 20 25 mph 1013.8mb 59f 63f
12:04 6.5ft 6s 22 25 mph 1013.9mb 59f 64f
Mo 06/27 11:04 6ft 6s 22 25 mph 1013.9mb 60f 64f
10:04 5.5ft 5s 20 25 mph 1014.3mb 59f 63f
9:04 5.5ft 6s 18 22 mph 1014.1mb 59f 63f
8:04 6ft 5s 20 25 mph 1013.8mb 60f 63f
7:04 5ft 5s 20 25 mph 1013.7mb 59f 63f
6:04 5ft 5s 20 25 mph 1013.8mb 60f 64f
5:04 5ft 5s 20 25 mph 1013.9mb 60f 64f
4:04 5ft 5s 18 22 mph 1014.3mb 60f 64f
3:04 5ft 5s 18 22 mph 1014.4mb 60f 64f
2:04 5ft 5s 18 22 mph 1014.6mb 60f 64f
1:04 5ft 5s 20 25 mph 1015.2mb 60f 63f
12:04 5ft 5s 16 18 mph 1015.9mb 59f 63f
11:04 4ft 5s 16 18 mph 1016.1mb 59f 62f
10:04 4ft 5s 13 18 mph 1016.5mb 60f 62f
9:04 4ft 5s 16 18 mph 1016.8mb 60f 62f
8:04 4.5ft 5s 16 18 mph 1016.5mb 60f 62f
7:04 4ft 5s 16 20 mph 1016.5mb 60f 63f
6:04 3.5ft 5s 18 20 mph 1016.5mb 60f 63f
5:04 3.5ft 8s 16 18 mph 1016.5mb 60f 63f
4:04 3.5ft 8s 13 16 mph 1016.6mb 61f 62f
3:04 3ft 6s 13 16 mph 1016.5mb 61f 63f
2:04 3ft 6s 11 13 mph 1016.6mb 61f 63f
1:04 3ft 8s 13 16 mph 1017.3mb 62f 63f
12:04 3ft 8s 13 16 mph 1017.7mb 61f 63f
So 06/26 11:04 2.5ft 8s 11 13 mph 1018.2mb 60f 62f
10:04 2.5ft 8s 9 11 mph 1018.7mb 60f 62f
9:04 2.5ft 8s 9
mph
1018.9mb 60f 62f
8:04 2ft 8s 7
mph
1019.1mb 61f 62f
7:04 1.6ft 8s 7
mph
1019.2mb 61f 63f
6:04 2ft 8s 7 9 mph 1019.7mb 61f 63f
5:04 2ft 8s 9
mph
1020.2mb 61f 63f
4:04 2ft 8s 11
mph
1020.5mb 61f 63f
3:04 2ft 8s 9 11 mph 1021.2mb 61f 63f
2:04 2ft 8s 7
mph
1021.6mb 62f 63f
1:04 2ft 8s 7
mph
1021.8mb 62f 63f
12:04 1.6ft 8s 9
mph
1022.1mb 62f 63f
11:04 2ft 8s 7 9 mph 1022mb 62f 63f
10:04 2ft 8s 7
mph
1022.1mb 61f 62f
9:04 1.6ft 8s 4
mph
1022.3mb 60f 63f
8:04 2ft 8s 4
mph
1022.2mb 60f 63f
7:04 1.6ft 8s 4 7 mph 1021.6mb 61f 62f
6:04 2ft 8s 7
mph
1021.6mb 61f 61f
5:04 2ft 8s 4
mph
1021.8mb 60f 61f
4:04 2.5ft 8s 7
mph
1022mb 61f 61f
3:04 2.5ft 8s 4 7 mph 1021.8mb 61f 61f
2:04 2.5ft 6s 7
mph
1021.3mb 61f 61f
1:04 2.5ft 8s 4
mph
1021.4mb 61f 60f
12:04 2.5ft 8s 2 4 mph 1021.8mb 60f 60f
Sa 06/25 11:04 2.5ft 6s 2
mph
1022mb 60f 60f
10:04 2ft 8s 2
mph
1022.2mb 60f 60f
9:04 1.6ft 8s 2
mph
1022.1mb 61f 61f
8:04 2.5ft 8s 4
mph
1021.3mb 60f 62f
7:04 2.5ft 8s 4
mph
1021mb 60f 64f
6:04 2.5ft 8s 4
mph
1021.1mb 61f 64f
5:04 2.5ft 8s 4 7 mph 1021.3mb 62f 64f
4:04 2.5ft 8s 7
mph
1021.4mb 61f 63f
3:04 3ft 8s 9 11 mph 1021.6mb 61f 63f
2:04 3.5ft 8s 7
mph
1022.2mb 62f 63f
1:04 3ft 8s 4 7 mph 1022.2mb 61f 63f
12:04 3ft 8s 4
mph
1022.4mb 60f 62f
11:04 2.5ft 8s 7
mph
1022.5mb 60f 61f
10:04 2.5ft 8s 7
mph
1022.4mb 59f 61f
9:04 2.5ft 8s 7 9 mph 1022mb 59f 61f
8:04 2.5ft 8s 9
mph
1022mb 58f 60f
7:04 2ft 8s 7
mph
1021.5mb 58f 60f
6:04 2ft 11s 4 7 mph 1021mb 58f 59f
5:04 2.5ft 8s 2 4 mph 1020.5mb 58f 58f
4:04 2.5ft 8s 4 7 mph 1019.9mb 58f 58f